TimeEDT,TemperatureF,Dew PointF,Humidity,Sea Level PressureIn,VisibilityMPH,Wind Direction,Wind SpeedMPH,Gust SpeedMPH,PrecipitationIn,Events,Conditions,WindDirDegrees,DateUTC
12:54 AM,72.0,64.9,78,30.14,-9999.0,WSW,5.8,-,N/A,,Unknown,240,2013-08-21 04:54:00
1:54 AM,71.1,66.0,84,30.14,-9999.0,West,4.6,-,N/A,,Unknown,260,2013-08-21 05:54:00
2:54 AM,71.1,66.9,87,30.14,-9999.0,Calm,Calm,-,N/A,,Unknown,0,2013-08-21 06:54:00
3:54 AM,66.0,64.0,93,30.14,-9999.0,Calm,Calm,-,N/A,,Unknown,0,2013-08-21 07:54:00
4:54 AM,64.9,63.0,93,30.14,-9999.0,Calm,Calm,-,N/A,,Unknown,0,2013-08-21 08:54:00
5:54 AM,66.0,64.0,93,30.16,-9999.0,Calm,Calm,-,N/A,,Unknown,0,2013-08-21 09:54:00
6:54 AM,66.9,64.0,90,30.17,-9999.0,Calm,Calm,-,N/A,,Unknown,0,2013-08-21 10:54:00
7:54 AM,71.1,68.0,90,30.18,-9999.0,Calm,Calm,-,N/A,,Unknown,0,2013-08-21 11:54:00
8:54 AM,73.9,69.1,85,30.17,-9999.0,Calm,Calm,-,N/A,,Unknown,0,2013-08-21 12:54:00
9:54 AM,77.0,70.0,79,30.17,-9999.0,Calm,Calm,-,N/A,,Unknown,0,2013-08-21 13:54:00
10:54 AM,77.0,68.0,74,30.17,-9999.0,West,4.6,-,N/A,,Unknown,260,2013-08-21 14:54:00
11:54 AM,82.0,71.1,69,30.17,-9999.0,Calm,Calm,-,N/A,,Unknown,0,2013-08-21 15:54:00
12:54 PM,82.9,66.9,58,30.16,-9999.0,Calm,Calm,-,N/A,,Unknown,0,2013-08-21 16:54:00
1:54 PM,84.0,63.0,49,30.15,-9999.0,WSW,5.8,-,N/A,,Unknown,240,2013-08-21 17:54:00
2:54 PM,82.9,70.0,65,30.14,-9999.0,South,4.6,-,N/A,,Unknown,190,2013-08-21 18:54:00
3:54 PM,82.0,68.0,62,30.12,-9999.0,South,4.6,-,N/A,,Unknown,190,2013-08-21 19:54:00
4:54 PM,82.0,66.0,58,30.11,-9999.0,SW,6.9,-,N/A,,Unknown,220,2013-08-21 20:54:00
5:54 PM,81.0,64.0,56,30.10,-9999.0,SSW,3.5,-,N/A,,Unknown,210,2013-08-21 21:54:00
6:54 PM,75.9,64.0,67,30.09,-9999.0,SW,4.6,-,N/A,,Unknown,220,2013-08-21 22:54:00
7:54 PM,73.9,64.0,71,30.09,-9999.0,SW,6.9,-,N/A,,Unknown,220,2013-08-21 23:54:00
8:54 PM,73.9,68.0,82,30.10,-9999.0,SW,6.9,-,N/A,,Unknown,220,2013-08-22 00:54:00
9:54 PM,73.0,68.0,84,30.10,-9999.0,SW,6.9,-,N/A,,Unknown,230,2013-08-22 01:54:00
10:54 PM,73.0,70.0,90,30.10,-9999.0,SW,6.9,-,N/A,,Unknown,220,2013-08-22 02:54:00
11:54 PM,73.0,70.0,90,30.08,-9999.0,SW,8.1,16.1,N/A,,Unknown,230,2013-08-22 03:54:00